Time;durP1;ratioP1;P1;durP2;ratioP2;P2;SDS_P1;SDS_P2;PMS_P1;PMS_P2;Temp;Humidity;BMP_temperature;BMP_pressure;BME280_temperature;BME280_humidity;BME280_pressure;Samples;Min_cycle;Max_cycle;Signal;HPM_P1;HPM_P2
2023/10/04 00:00:21;;;;;;;4.82;1.90;;;;;;;12.25;96.41;102037.34;5020411;28;20029;-61
2023/10/04 00:02:49;;;;;;;5.57;2.00;;;;;;;12.18;96.84;102035.56;5022786;28;20032;-60
2023/10/04 00:05:19;;;;;;;5.43;1.95;;;;;;;12.11;97.24;102036.38;5024120;28;20041;-60
2023/10/04 00:07:49;;;;;;;4.65;1.73;;;;;;;12.03;97.85;102032.88;5023405;28;20473;-60
2023/10/04 00:10:16;;;;;;;5.03;2.53;;;;;;;11.98;98.03;102039.75;5027347;28;20037;-60
2023/10/04 00:12:42;;;;;;;12.50;1.98;;;;;;;11.96;98.50;102043.22;5030646;28;20037;-60
2023/10/04 00:15:14;;;;;;;7.18;2.42;;;;;;;11.94;98.31;102053.53;5023692;28;20029;-60
2023/10/04 00:17:43;;;;;;;4.97;2.47;;;;;;;11.92;98.82;102059.59;5021377;28;20091;-60
2023/10/04 00:20:10;;;;;;;4.57;1.90;;;;;;;11.86;98.86;102061.28;5029575;28;20037;-60
2023/10/04 00:22:38;;;;;;;6.85;2.20;;;;;;;11.84;99.13;102062.97;5017776;28;20538;-60
2023/10/04 00:25:04;;;;;;;6.53;2.13;;;;;;;11.80;99.31;102057.78;5023323;28;21261;-60
2023/10/04 00:27:30;;;;;;;4.20;1.90;;;;;;;11.79;99.32;102068.97;5022117;28;20827;-60
2023/10/04 00:29:56;;;;;;;4.63;2.30;;;;;;;11.75;99.62;102065.50;5022188;28;20040;-60
2023/10/04 00:32:21;;;;;;;6.25;2.10;;;;;;;11.76;99.72;102072.41;5030085;28;20033;-60
2023/10/04 00:34:47;;;;;;;5.68;2.17;;;;;;;11.78;99.85;102082.81;5018232;28;20049;-60
2023/10/04 00:37:15;;;;;;;6.60;2.70;;;;;;;11.74;99.93;102076.72;5026129;28;20048;-60
2023/10/04 00:39:40;;;;;;;3.78;2.03;;;;;;;11.77;100.00;102075.88;5024642;28;20061;-60
2023/10/04 00:42:06;;;;;;;5.50;2.33;;;;;;;11.73;100.00;102085.34;5022683;28;20132;-60
2023/10/04 00:44:35;;;;;;;4.93;2.05;;;;;;;11.72;100.00;102083.59;5021647;28;20025;-62
2023/10/04 00:47:05;;;;;;;10.73;3.10;;;;;;;11.71;100.00;102099.16;5022667;28;20025;-62
2023/10/04 00:49:32;;;;;;;5.65;2.08;;;;;;;11.71;100.00;102088.78;5021157;28;20804;-62
2023/10/04 00:52:01;;;;;;;8.95;2.10;;;;;;;11.72;100.00;102093.13;5022864;28;20049;-62
2023/10/04 00:54:27;;;;;;;10.05;2.47;;;;;;;11.71;100.00;102094.84;5016782;28;20048;-62
2023/10/04 00:56:53;;;;;;;9.35;2.50;;;;;;;11.71;100.00;102099.16;5024432;28;20029;-62
2023/10/04 00:59:19;;;;;;;4.32;2.45;;;;;;;11.77;100.00;102102.66;5023900;28;20041;-62
2023/10/04 01:01:44;;;;;;;9.38;2.67;;;;;;;11.77;100.00;102112.16;5022241;28;20044;-62
2023/10/04 01:04:10;;;;;;;11.05;2.58;;;;;;;11.77;100.00;102115.63;5020852;28;20033;-62
2023/10/04 01:06:36;;;;;;;8.13;2.38;;;;;;;11.78;100.00;102114.75;5026162;28;20045;-62
2023/10/04 01:09:02;;;;;;;8.90;2.03;;;;;;;11.74;100.00;102115.59;5024742;28;20036;-66
2023/10/04 01:11:35;;;;;;;7.30;2.10;;;;;;;11.73;100.00;102115.56;5025485;28;20061;-62
2023/10/04 01:14:18;;;;;;;7.45;2.08;;;;;;;11.73;100.00;102111.25;5024322;28;20041;-63
2023/10/04 01:16:43;;;;;;;6.22;2.20;;;;;;;11.71;100.00;102114.69;5026465;28;20516;-64
2023/10/04 01:19:14;;;;;;;6.50;2.40;;;;;;;11.70;100.00;102112.94;5030612;28;20099;-64
2023/10/04 01:21:40;;;;;;;9.13;2.55;;;;;;;11.74;100.00;102110.41;5021704;28;20088;-64
2023/10/04 01:24:09;;;;;;;8.00;1.92;;;;;;;11.78;100.00;102116.50;5018116;28;20029;-64
2023/10/04 01:26:36;;;;;;;8.65;2.03;;;;;;;11.82;100.00;102121.69;5025394;28;20761;-63
2023/10/04 01:29:08;;;;;;;10.27;2.58;;;;;;;11.82;100.00;102113.91;5022598;28;20091;-63
2023/10/04 01:31:33;;;;;;;5.68;2.08;;;;;;;11.82;100.00;102113.03;5021672;28;20483;-63
2023/10/04 01:33:58;;;;;;;5.15;2.13;;;;;;;11.79;100.00;102123.38;5026306;28;20067;-63
2023/10/04 01:36:24;;;;;;;9.23;2.10;;;;;;;11.74;100.00;102114.72;5020317;28;20033;-63
2023/10/04 01:38:51;;;;;;;5.78;1.77;;;;;;;11.68;100.00;102120.72;5025098;28;20025;-63
2023/10/04 01:41:17;;;;;;;9.90;2.40;;;;;;;11.62;100.00;102115.47;5020452;28;20034;-63
2023/10/04 01:43:42;;;;;;;6.20;1.90;;;;;;;11.57;100.00;102112.00;5026567;28;20086;-64
2023/10/04 01:46:08;;;;;;;8.18;1.90;;;;;;;11.52;100.00;102111.06;5021174;28;20187;-63
2023/10/04 01:48:36;;;;;;;5.22;2.15;;;;;;;11.50;100.00;102114.50;5020490;28;20044;-63
2023/10/04 01:51:03;;;;;;;6.55;2.00;;;;;;;11.50;100.00;102115.38;5023665;28;20037;-63
2023/10/04 01:53:29;;;;;;;5.45;1.88;;;;;;;11.50;100.00;102117.09;5026028;28;20188;-64
2023/10/04 01:55:54;;;;;;;10.23;2.30;;;;;;;11.49;100.00;102118.81;5024217;28;20423;-63
2023/10/04 01:58:23;;;;;;;6.97;1.88;;;;;;;11.51;100.00;102117.13;5021414;28;20065;-63
2023/10/04 02:00:52;;;;;;;7.45;2.08;;;;;;;11.53;100.00;102118.00;5023320;28;20808;-63
2023/10/04 02:03:17;;;;;;;11.90;2.20;;;;;;;11.55;100.00;102116.28;5024924;28;20024;-63
2023/10/04 02:05:43;;;;;;;5.75;1.70;;;;;;;11.57;100.00;102108.53;5026544;28;20127;-63
2023/10/04 02:08:12;;;;;;;8.07;2.25;;;;;;;11.61;100.00;102107.69;5021242;28;20033;-63
2023/10/04 02:10:40;;;;;;;5.50;1.80;;;;;;;11.64;100.00;102107.72;5028498;28;20057;-63
2023/10/04 02:13:07;;;;;;;12.05;2.58;;;;;;;11.65;100.00;102106.88;5025801;28;20037;-63
2023/10/04 02:15:36;;;;;;;7.53;2.25;;;;;;;11.66;100.00;102098.25;5023666;28;20099;-63
2023/10/04 02:18:02;;;;;;;5.53;1.88;;;;;;;11.65;100.00;102105.16;5024602;28;20045;-63
2023/10/04 02:20:33;;;;;;;8.35;2.95;;;;;;;11.68;100.00;102107.75;5027439;28;20041;-63
2023/10/04 02:22:58;;;;;;;7.32;2.50;;;;;;;11.70;100.00;102108.63;5020371;28;20107;-63
2023/10/04 02:25:24;;;;;;;5.93;1.98;;;;;;;11.76;100.00;102105.22;5030224;28;20448;-63
2023/10/04 02:27:52;;;;;;;7.82;1.95;;;;;;;11.81;100.00;102108.75;5028356;28;20088;-63
2023/10/04 02:30:26;;;;;;;5.45;2.17;;;;;;;11.82;100.00;102106.16;5027864;28;20033;-60
2023/10/04 02:32:52;;;;;;;8.23;2.53;;;;;;;11.83;100.00;102112.19;5021018;28;20037;-59
2023/10/04 02:35:27;;;;;;;7.65;2.40;;;;;;;11.84;100.00;102109.59;5026266;28;20074;-60
2023/10/04 02:37:54;;;;;;;;;;;;;;;11.86;100.00;102114.81;5028321;28;20119;-60
2023/10/04 02:40:22;;;;;;;9.57;2.47;;;;;;;11.93;100.00;102108.81;5029014;28;19967;-60
2023/10/04 02:42:49;;;;;;;7.35;2.30;;;;;;;11.94;100.00;102107.97;5026294;28;20037;-60
2023/10/04 02:45:21;;;;;;;7.82;2.40;;;;;;;11.97;100.00;102113.16;5028991;28;20029;-60
2023/10/04 02:47:48;;;;;;;9.52;2.45;;;;;;;11.97;100.00;102107.13;5026072;28;20130;-64
2023/10/04 02:50:17;;;;;;;7.82;2.20;;;;;;;11.99;100.00;102114.03;5029524;28;20095;-62
2023/10/04 02:52:44;;;;;;;8.20;2.42;;;;;;;12.00;100.00;102110.59;5023940;28;20706;-62
2023/10/04 02:55:09;;;;;;;6.97;2.30;;;;;;;12.01;100.00;102104.56;5016517;28;20037;-62
2023/10/04 02:57:35;;;;;;;6.22;2.55;;;;;;;12.06;100.00;102108.06;5028600;28;20073;-62
2023/10/04 03:00:11;;;;;;;3.85;2.20;;;;;;;12.08;100.00;102118.44;5019673;28;20025;-62
2023/10/04 03:02:37;;;;;;;8.32;3.05;;;;;;;12.09;100.00;102113.25;5020971;28;20119;-62
2023/10/04 03:05:06;;;;;;;11.95;2.80;;;;;;;12.12;100.00;102112.41;5018766;28;20037;-62
2023/10/04 03:07:33;;;;;;;4.68;2.70;;;;;;;12.13;100.00;102112.44;5024957;28;20036;-62
2023/10/04 03:09:58;;;;;;;5.70;2.30;;;;;;;12.15;100.00;102110.72;5023017;28;20161;-62
2023/10/04 03:12:24;;;;;;;7.20;3.22;;;;;;;12.16;100.00;102117.63;5006676;28;20045;-62
2023/10/04 03:14:50;;;;;;;5.78;2.03;;;;;;;12.18;100.00;102109.84;5014841;28;20037;-62
2023/10/04 03:17:16;;;;;;;8.25;2.67;;;;;;;12.22;100.00;102115.09;5018887;28;20037;-62
2023/10/04 03:19:41;;;;;;;8.20;2.55;;;;;;;12.21;100.00;102113.34;5016258;28;20038;-62
2023/10/04 03:22:08;;;;;;;5.72;2.33;;;;;;;12.22;100.00;102115.09;5021941;28;20033;-68
2023/10/04 03:24:34;;;;;;;5.82;2.35;;;;;;;12.21;100.00;102105.56;5029208;28;20037;-69
2023/10/04 03:26:59;;;;;;;4.60;2.25;;;;;;;12.22;100.00;102101.25;5029067;28;20037;-68
2023/10/04 03:29:25;;;;;;;5.55;2.38;;;;;;;12.20;100.00;102101.22;5022235;28;20559;-68
2023/10/04 03:31:50;;;;;;;5.10;2.30;;;;;;;12.21;100.00;102102.09;5025186;28;20649;-68
2023/10/04 03:34:15;;;;;;;5.88;2.42;;;;;;;12.21;100.00;102104.69;5023173;28;20117;-68
2023/10/04 03:36:46;;;;;;;6.47;2.40;;;;;;;12.23;100.00;102109.03;5025519;28;20045;-68
2023/10/04 03:39:12;;;;;;;5.55;2.13;;;;;;;12.22;100.00;102106.44;5024136;28;20033;-67
2023/10/04 03:41:38;;;;;;;4.63;2.20;;;;;;;12.22;100.00;102104.72;5026509;28;20029;-68
2023/10/04 03:44:05;;;;;;;6.10;2.47;;;;;;;12.24;100.00;102100.41;5018180;28;20103;-68
2023/10/04 03:46:31;;;;;;;8.32;2.63;;;;;;;12.26;100.00;102103.84;5022315;28;20045;-68
2023/10/04 03:48:58;;;;;;;9.77;2.75;;;;;;;12.28;100.00;102111.66;5022287;28;20487;-63
2023/10/04 03:51:24;;;;;;;7.57;2.45;;;;;;;12.29;100.00;102103.88;5025355;28;20111;-62
2023/10/04 03:53:53;;;;;;;8.60;2.22;;;;;;;12.30;100.00;102103.03;5027725;28;20030;-62
2023/10/04 03:56:21;;;;;;;5.22;2.28;;;;;;;12.31;100.00;102109.09;5027731;28;20046;-62
2023/10/04 03:58:48;;;;;;;9.75;2.50;;;;;;;12.32;100.00;102113.41;5030656;28;20112;-63
2023/10/04 04:01:14;;;;;;;5.57;2.38;;;;;;;12.32;100.00;102116.00;5029383;28;20060;-62
2023/10/04 04:03:40;;;;;;;5.07;2.47;;;;;;;12.32;100.00;102118.56;5020865;28;20144;-62
2023/10/04 04:06:05;;;;;;;7.78;2.88;;;;;;;12.32;100.00;102118.56;5020719;28;20061;-62
2023/10/04 04:08:30;;;;;;;5.72;2.72;;;;;;;12.33;100.00;102128.09;5021573;28;20083;-63
2023/10/04 04:10:56;;;;;;;6.38;2.10;;;;;;;12.35;100.00;102128.97;5024811;28;20075;-62
2023/10/04 04:13:23;;;;;;;11.23;2.47;;;;;;;12.35;100.00;102137.63;5024056;28;20041;-62
2023/10/04 04:15:49;;;;;;;9.38;2.17;;;;;;;12.34;100.00;102135.91;5023159;28;20036;-62
2023/10/04 04:18:20;;;;;;;7.05;2.55;;;;;;;12.35;100.00;102134.16;5015342;28;20040;-62
2023/10/04 04:20:49;;;;;;;7.43;2.92;;;;;;;12.35;100.00;102129.84;5027768;28;20338;-62
2023/10/04 04:23:15;;;;;;;6.65;2.50;;;;;;;12.34;100.00;102122.94;5015555;28;20040;-62
2023/10/04 04:25:41;;;;;;;9.52;2.55;;;;;;;12.31;100.00;102122.06;5017861;28;20041;-62
2023/10/04 04:28:07;;;;;;;6.70;2.38;;;;;;;12.29;100.00;102114.25;5022218;28;20459;-63
2023/10/04 04:30:35;;;;;;;10.23;3.28;;;;;;;12.28;100.00;102117.72;5026152;28;20732;-67
2023/10/04 04:33:03;;;;;;;8.75;3.00;;;;;;;12.29;100.00;102118.56;5020390;28;20040;-68
2023/10/04 04:38:15;;;;;;;9.93;3.15;;;;;;;12.34;100.00;102114.28;5029682;28;20042;-68
2023/10/04 04:40:47;;;;;;;6.15;2.60;;;;;;;12.34;100.00;102119.47;5019730;28;20037;-62
2023/10/04 04:45:50;;;;;;;9.40;3.20;;;;;;;12.33;100.00;102117.72;5022143;28;20518;-62
2023/10/04 04:48:18;;;;;;;23.05;3.88;;;;;;;12.28;100.00;102122.03;5020811;28;20056;-69
2023/10/04 04:50:43;;;;;;;7.10;2.97;;;;;;;12.26;100.00;102114.22;5018339;28;20088;-68
2023/10/04 04:53:14;;;;;;;10.20;2.72;;;;;;;12.29;100.00;102114.25;5016698;28;20064;-70
2023/10/04 04:55:39;;;;;;;9.10;3.25;;;;;;;12.29;100.00;102118.56;5019013;28;20156;-67
2023/10/04 04:58:06;;;;;;;8.02;2.88;;;;;;;12.27;100.00;102126.34;5021517;28;20135;-67
2023/10/04 05:00:32;;;;;;;6.30;2.80;;;;;;;12.28;100.00;102132.41;5019484;28;20033;-60
2023/10/04 05:02:59;;;;;;;7.80;3.15;;;;;;;12.27;100.00;102125.47;5022593;28;20029;-60
2023/10/04 05:05:25;;;;;;;8.55;3.63;;;;;;;12.25;100.00;102122.88;5017470;28;20590;-60
2023/10/04 05:07:50;;;;;;;6.65;2.97;;;;;;;12.25;100.00;102120.28;5022517;28;20034;-60
2023/10/04 05:10:18;;;;;;;7.93;2.67;;;;;;;12.27;100.00;102115.09;5020446;28;20076;-66
2023/10/04 05:12:46;;;;;;;8.85;3.20;;;;;;;12.31;100.00;102109.97;5019992;28;20025;-69
2023/10/04 05:15:22;;;;;;;7.97;2.42;;;;;;;12.28;100.00;102111.66;5021440;28;20056;-67
2023/10/04 05:17:51;;;;;;;6.22;2.80;;;;;;;12.26;100.00;102115.94;5022578;28;20044;-68
2023/10/04 05:20:21;;;;;;;10.20;2.95;;;;;;;12.23;100.00;102119.41;5024373;28;20109;-68
2023/10/04 05:22:49;;;;;;;10.38;2.92;;;;;;;12.20;100.00;102116.78;5012874;28;20057;-67
2023/10/04 05:25:14;;;;;;;6.97;2.85;;;;;;;12.21;100.00;102120.25;5017118;28;20030;-67
2023/10/04 05:27:40;;;;;;;7.43;3.70;;;;;;;12.20;100.00;102118.50;5017706;28;20056;-67
2023/10/04 05:30:06;;;;;;;9.43;2.83;;;;;;;12.15;100.00;102122.78;5021430;28;20432;-66
2023/10/04 05:32:32;;;;;;;8.65;2.95;;;;;;;12.12;100.00;102123.66;5028261;28;20036;-68
2023/10/04 05:34:57;;;;;;;9.88;3.15;;;;;;;12.09;100.00;102126.22;5021818;28;20095;-68
2023/10/04 05:37:22;;;;;;;7.45;3.28;;;;;;;12.06;100.00;102133.09;5022321;28;20083;-67
2023/10/04 05:39:48;;;;;;;8.07;3.67;;;;;;;12.08;100.00;102137.44;5025175;28;20033;-68
2023/10/04 05:42:13;;;;;;;5.32;3.13;;;;;;;12.07;100.00;102132.25;5021073;28;20080;-68
2023/10/04 05:44:39;;;;;;;13.55;3.70;;;;;;;12.05;100.00;102121.84;5019275;28;20519;-67
2023/10/04 05:47:05;;;;;;;8.48;3.92;;;;;;;12.04;100.00;102127.03;5016799;28;20041;-68
2023/10/04 05:49:33;;;;;;;5.88;3.33;;;;;;;12.03;100.00;102135.66;5025677;28;20049;-67
2023/10/04 05:51:59;;;;;;;6.45;3.40;;;;;;;12.00;100.00;102131.34;5025145;28;20048;-62
2023/10/04 05:54:25;;;;;;;8.95;3.85;;;;;;;11.98;100.00;102122.69;5023635;28;20677;-62
2023/10/04 05:56:51;;;;;;;8.48;3.65;;;;;;;11.97;100.00;102133.03;5026296;28;20033;-62
2023/10/04 05:59:17;;;;;;;9.05;3.28;;;;;;;11.95;100.00;102138.22;5018719;28;20048;-62
2023/10/04 06:01:42;;;;;;;9.52;3.78;;;;;;;11.97;100.00;102146.84;5024306;28;20044;-62
2023/10/04 06:04:10;;;;;;;8.82;3.75;;;;;;;11.97;100.00;102153.75;5017704;28;20044;-62
2023/10/04 06:06:36;;;;;;;6.07;3.15;;;;;;;11.99;100.00;102157.25;5018898;28;20052;-63
2023/10/04 06:09:01;;;;;;;9.05;3.65;;;;;;;12.00;100.00;102152.06;5023848;28;20037;-62
2023/10/04 06:11:26;;;;;;;11.65;4.32;;;;;;;12.01;100.00;102151.22;5025032;28;20123;-62
2023/10/04 06:13:52;;;;;;;8.57;4.45;;;;;;;12.06;100.00;102149.53;5017708;28;20043;-62
2023/10/04 06:16:20;;;;;;;12.90;4.45;;;;;;;12.11;100.00;102152.16;5019728;28;20523;-62
2023/10/04 06:18:48;;;;;;;17.65;5.03;;;;;;;12.15;100.00;102161.69;5017106;28;20055;-62
2023/10/04 06:21:16;;;;;;;10.38;3.65;;;;;;;12.18;100.00;102170.34;5019598;28;20037;-62
2023/10/04 06:23:44;;;;;;;9.25;3.72;;;;;;;12.22;100.00;102174.72;5024597;28;20566;-62
2023/10/04 06:26:12;;;;;;;10.30;4.57;;;;;;;12.30;100.00;102179.94;5022659;28;20044;-61
2023/10/04 06:28:38;;;;;;;13.85;4.07;;;;;;;12.40;100.00;102182.63;5018502;28;20038;-62
2023/10/04 06:31:03;;;;;;;7.63;3.67;;;;;;;12.52;100.00;102188.75;5021565;28;20122;-62
2023/10/04 06:33:29;;;;;;;9.25;4.55;;;;;;;12.61;100.00;102181.88;5014608;28;20041;-62
2023/10/04 06:35:55;;;;;;;11.45;4.13;;;;;;;12.70;100.00;102186.25;5017251;28;20041;-62
2023/10/04 06:38:20;;;;;;;12.10;4.78;;;;;;;12.77;100.00;102194.06;5023702;28;20505;-62
2023/10/04 06:40:46;;;;;;;8.57;3.70;;;;;;;12.85;100.00;102202.75;5022615;28;20068;-62
2023/10/04 06:43:14;;;;;;;6.82;3.72;;;;;;;12.95;100.00;102204.53;5013531;28;20038;-62
2023/10/04 06:45:40;;;;;;;11.07;4.00;;;;;;;13.05;100.00;102195.13;5018357;28;20769;-63
2023/10/04 06:48:05;;;;;;;9.48;4.10;;;;;;;13.10;99.61;102190.78;5018784;28;20036;-62
2023/10/04 06:50:35;;;;;;;11.43;3.75;;;;;;;13.12;99.32;102186.47;5020757;28;20036;-63
2023/10/04 06:53:02;;;;;;;8.82;4.20;;;;;;;13.12;99.27;102190.81;5023255;28;20041;-63
2023/10/04 06:55:28;;;;;;;11.02;4.05;;;;;;;13.12;99.02;102193.41;5020787;28;20126;-63
2023/10/04 06:57:55;;;;;;;8.15;3.83;;;;;;;13.17;98.91;102202.06;5018545;28;20045;-63
2023/10/04 07:00:26;;;;;;;6.75;3.30;;;;;;;13.18;98.99;102201.22;5021070;28;20548;-63
2023/10/04 07:02:59;;;;;;;11.98;4.50;;;;;;;13.25;98.28;102208.16;5023930;28;20049;-63
2023/10/04 07:05:43;;;;;;;9.98;4.15;;;;;;;13.33;97.53;102215.09;5026738;28;20686;-65
2023/10/04 07:08:16;;;;;;;10.45;3.55;;;;;;;13.42;96.96;102211.66;5025506;28;20037;-63
2023/10/04 07:10:43;;;;;;;10.18;3.35;;;;;;;13.49;96.07;102203.03;5026654;28;20195;-63
2023/10/04 07:13:09;;;;;;;12.30;4.80;;;;;;;13.57;95.15;102207.41;5025947;28;20564;-62
2023/10/04 07:15:41;;;;;;;8.23;3.95;;;;;;;13.65;94.62;102216.94;5026743;28;20048;-63
2023/10/04 07:18:12;;;;;;;11.60;4.22;;;;;;;13.70;94.14;102225.59;5022899;28;20623;-62
2023/10/04 07:20:38;;;;;;;11.55;3.60;;;;;;;13.74;94.03;102227.38;5024694;28;20510;-62
2023/10/04 07:23:07;;;;;;;10.75;3.80;;;;;;;13.79;93.37;102226.50;5022226;28;20150;-62
2023/10/04 07:25:34;;;;;;;11.65;4.07;;;;;;;13.83;93.95;102227.38;5025076;28;20037;-66
2023/10/04 07:28:02;;;;;;;10.55;3.97;;;;;;;13.89;93.50;102228.22;5025159;28;20551;-67
2023/10/04 07:30:33;;;;;;;10.82;3.72;;;;;;;13.97;92.07;102213.53;5022285;28;21015;-67
2023/10/04 07:32:59;;;;;;;11.60;4.75;;;;;;;14.03;92.20;102226.53;5023262;28;20037;-67
2023/10/04 07:35:25;;;;;;;10.85;3.85;;;;;;;14.08;91.67;102226.53;5028746;28;20051;-66
2023/10/04 07:37:52;;;;;;;16.17;5.55;;;;;;;14.15;91.01;102232.59;5029976;28;20189;-66
2023/10/04 07:40:20;;;;;;;9.23;3.88;;;;;;;14.22;91.09;102237.78;5022367;28;20032;-66
2023/10/04 07:42:46;;;;;;;7.90;3.80;;;;;;;14.28;90.70;102240.38;5019748;28;20037;-67
2023/10/04 07:45:13;;;;;;;11.82;4.07;;;;;;;14.37;89.93;102247.31;5022928;28;20032;-66
2023/10/04 07:47:43;;;;;;;10.88;3.88;;;;;;;14.46;89.65;102252.56;5021679;28;20026;-67
2023/10/04 07:50:11;;;;;;;10.30;3.92;;;;;;;14.54;88.87;102246.47;5022109;28;20042;-66
2023/10/04 07:52:44;;;;;;;6.22;3.30;;;;;;;14.62;88.70;102256.88;5029133;28;20202;-67
2023/10/04 07:55:22;;;;;;;15.25;4.60;;;;;;;14.70;87.88;102246.47;5027815;28;20048;-67
2023/10/04 07:57:49;;;;;;;12.20;4.00;;;;;;;14.75;88.00;102245.56;5020274;28;20037;-67
2023/10/04 08:00:16;;;;;;;9.85;4.07;;;;;;;14.77;87.44;102243.84;5016903;28;20091;-68
2023/10/04 08:02:52;;;;;;;7.65;3.50;;;;;;;14.78;87.19;102249.94;5019028;28;20106;-67
2023/10/04 08:05:23;;;;;;;14.65;4.10;;;;;;;14.79;87.12;102247.31;5025292;28;20040;-66
2023/10/04 08:07:55;;;;;;;8.43;3.53;;;;;;;14.84;86.84;102250.75;5021415;28;20091;-67
2023/10/04 08:10:25;;;;;;;12.02;4.10;;;;;;;14.91;86.64;102249.88;5026079;28;20037;-65
2023/10/04 08:12:53;;;;;;;15.27;4.32;;;;;;;14.99;86.86;102252.50;5023708;28;20041;-68
2023/10/04 08:15:19;;;;;;;13.68;4.05;;;;;;;14.99;86.45;102250.72;5020740;28;20598;-67
2023/10/04 08:17:48;;;;;;;11.95;3.92;;;;;;;15.04;86.36;102249.00;5022652;28;20037;-66
2023/10/04 08:20:19;;;;;;;9.48;4.00;;;;;;;15.10;86.17;102251.59;5014244;28;20037;-68
2023/10/04 08:22:45;;;;;;;11.63;4.03;;;;;;;15.13;86.63;102254.19;5017594;28;20048;-67
2023/10/04 08:25:32;;;;;;;12.98;4.70;;;;;;;15.19;85.76;102248.94;5025113;28;20041;-68
2023/10/04 08:27:57;;;;;;;11.70;3.85;;;;;;;15.25;85.67;102242.84;5014988;28;20582;-67
2023/10/04 08:30:22;;;;;;;12.25;4.18;;;;;;;15.32;85.33;102233.25;5017551;28;20051;-66
2023/10/04 08:32:50;;;;;;;10.82;4.63;;;;;;;15.38;85.27;102235.81;5026760;28;20419;-67
2023/10/04 08:35:33;;;;;;;9.85;4.07;;;;;;;15.44;85.00;102233.19;5021272;28;20144;-67
2023/10/04 08:38:00;;;;;;;12.77;3.80;;;;;;;15.50;84.47;102231.41;5028509;28;20448;-60
2023/10/04 08:40:28;;;;;;;8.25;3.60;;;;;;;15.57;84.12;102232.25;5025477;28;20038;-60
2023/10/04 08:42:55;;;;;;;15.95;4.32;;;;;;;15.59;84.27;102238.31;5016220;28;20045;-60
2023/10/04 08:45:21;;;;;;;10.98;4.32;;;;;;;15.63;83.30;102233.13;5017200;28;20638;-60
2023/10/04 08:47:51;;;;;;;10.50;3.25;;;;;;;15.71;83.52;102240.88;5021478;28;20488;-60
2023/10/04 08:50:38;;;;;;;13.50;3.30;;;;;;;15.76;83.61;102236.53;5024671;28;20037;-60
2023/10/04 08:53:15;;;;;;;15.57;4.80;;;;;;;15.84;82.56;102223.44;5026376;28;20655;-60
2023/10/04 08:55:48;;;;;;;9.40;3.22;;;;;;;15.92;82.71;102225.09;5021715;28;20049;-60
2023/10/04 08:58:16;;;;;;;8.20;3.05;;;;;;;16.00;80.70;102206.81;5022628;28;20041;-60
2023/10/04 09:00:43;;;;;;;9.75;3.83;;;;;;;16.13;80.22;102218.88;5017698;28;20504;-60
2023/10/04 09:03:12;;;;;;;15.13;4.20;;;;;;;16.26;80.52;102225.72;5020038;28;20057;-60
2023/10/04 09:05:38;;;;;;;11.50;3.38;;;;;;;16.40;80.38;102221.25;5019550;28;20033;-60
2023/10/04 09:08:04;;;;;;;13.88;3.15;;;;;;;16.46;78.08;102202.91;5017978;28;20128;-60
2023/10/04 09:10:33;;;;;;;14.55;3.95;;;;;;;16.64;78.03;102207.97;5023361;28;20033;-60
2023/10/04 09:13:03;;;;;;;10.15;3.88;;;;;;;16.73;77.96;102215.69;5018090;28;20052;-62
2023/10/04 09:15:30;;;;;;;10.35;3.22;;;;;;;16.82;76.83;102201.69;5039585;28;20068;-62
2023/10/04 09:17:57;;;;;;;9.65;3.45;;;;;;;16.89;76.38;102200.72;5022901;28;20034;-62
2023/10/04 09:20:29;;;;;;;14.18;4.35;;;;;;;17.01;76.45;102197.13;5022514;28;20056;-62
2023/10/04 09:22:55;;;;;;;16.27;4.00;;;;;;;16.99;72.82;102138.81;5010557;28;20053;-62
2023/10/04 09:25:20;;;;;;;10.75;2.60;;;;;;;17.05;72.40;102151.78;5023940;28;20045;-63
2023/10/04 09:27:56;;;;;;;7.90;2.72;;;;;;;17.11;73.71;102172.63;5026599;28;20052;-63
2023/10/04 09:30:25;;;;;;;9.95;2.90;;;;;;;17.18;73.86;102179.50;5019353;28;20115;-63
2023/10/04 09:32:51;;;;;;;13.82;3.42;;;;;;;17.28;73.43;102160.19;5029657;28;20056;-62
2023/10/04 09:35:20;;;;;;;15.88;3.30;;;;;;;17.27;72.70;102158.47;5021370;28;20124;-63
2023/10/04 09:37:49;;;;;;;7.45;3.13;;;;;;;17.36;72.68;102160.97;5029367;28;20550;-63
2023/10/04 09:40:17;;;;;;;14.88;3.42;;;;;;;17.37;72.14;102160.91;5016172;28;20368;-63
2023/10/04 09:42:51;;;;;;;5.30;2.45;;;;;;;17.44;72.47;102153.88;5022588;28;20067;-63
2023/10/04 09:45:20;;;;;;;9.85;2.88;;;;;;;17.49;70.72;102132.88;5015077;28;21089;-62
2023/10/04 09:47:49;;;;;;;11.07;2.85;;;;;;;17.51;70.53;102128.50;5020516;28;20036;-63
2023/10/04 09:50:24;;;;;;;10.00;2.58;;;;;;;17.55;69.56;102117.97;5018530;28;20044;-62
2023/10/04 09:52:51;;;;;;;10.63;2.90;;;;;;;17.61;68.36;102091.72;5029524;28;20090;-63
2023/10/04 09:55:17;;;;;;;9.65;3.45;;;;;;;17.74;69.56;102127.25;5019837;28;20025;-63
2023/10/04 09:57:43;;;;;;;8.35;3.00;;;;;;;17.77;69.00;102115.88;5028536;28;20079;-60
2023/10/04 10:00:17;;;;;;;6.85;3.00;;;;;;;17.94;68.18;102103.41;5023185;28;20029;-66
2023/10/04 10:02:48;;;;;;;8.57;3.00;;;;;;;18.11;68.59;102121.41;5023300;28;20025;-69
2023/10/04 10:05:21;;;;;;;11.70;2.80;;;;;;;18.08;66.46;102074.38;5028457;28;20090;-68
2023/10/04 10:07:50;;;;;;;7.63;2.53;;;;;;;17.98;65.46;102065.84;5025610;28;20504;-62
2023/10/04 10:10:19;;;;;;;11.88;2.83;;;;;;;18.06;66.80;102099.69;5025106;28;20038;-62
2023/10/04 10:12:48;;;;;;;14.30;3.38;;;;;;;18.11;66.73;102103.94;5027242;28;20530;-62
2023/10/04 10:15:14;;;;;;;7.22;2.63;;;;;;;18.11;64.54;102058.59;5021289;28;20083;-62
2023/10/04 10:17:42;;;;;;;8.13;2.45;;;;;;;18.16;65.70;102091.66;5025737;28;20029;-63
2023/10/04 10:20:12;;;;;;;7.45;2.63;;;;;;;18.17;63.46;102053.25;5023169;28;20037;-62
2023/10/04 10:22:59;;;;;;;9.15;2.97;;;;;;;18.28;64.17;102067.00;5011612;28;20055;-62
2023/10/04 10:25:32;;;;;;;7.88;2.70;;;;;;;18.31;63.05;102046.00;5025650;28;20061;-62
2023/10/04 10:28:02;;;;;;;8.30;2.53;;;;;;;18.30;61.94;102029.44;5018053;28;20797;-62
2023/10/04 10:30:30;;;;;;;6.75;2.53;;;;;;;18.36;60.66;101997.03;5019525;28;20069;-60
2023/10/04 10:32:56;;;;;;;6.75;2.33;;;;;;;18.42;61.29;102013.47;5014389;28;20116;-60
2023/10/04 10:35:56;;;;;;;6.30;2.70;;;;;;;18.43;60.87;102003.88;5013094;28;20044;-60
2023/10/04 10:38:27;;;;;;;8.82;3.00;;;;;;;18.40;60.06;101985.63;5017002;28;20095;-60
2023/10/04 10:40:53;;;;;;;8.10;2.58;;;;;;;18.32;59.03;101969.19;5017564;28;20068;-60
2023/10/04 10:43:18;;;;;;;7.20;2.67;;;;;;;18.38;59.61;101982.16;5021936;28;20128;-68
2023/10/04 10:45:44;;;;;;;7.30;3.05;;;;;;;18.38;59.35;101980.41;5017473;28;20087;-68
2023/10/04 10:48:13;;;;;;;8.27;3.15;;;;;;;18.44;59.79;101993.34;5015525;28;20128;-68
2023/10/04 10:50:40;;;;;;;10.02;3.13;;;;;;;18.46;60.46;102009.06;5018661;28;20534;-60
2023/10/04 10:53:10;;;;;;;8.60;2.55;;;;;;;18.62;61.16;102023.53;5012838;28;20037;-60
2023/10/04 10:55:39;;;;;;;10.18;3.65;;;;;;;18.78;59.55;101988.25;5015224;28;20053;-60
2023/10/04 10:58:06;;;;;;;10.48;3.25;;;;;;;18.95;59.36;101993.13;5013913;28;20050;-60
2023/10/04 11:00:32;;;;;;;10.10;3.20;;;;;;;19.11;60.01;102005.00;5021155;28;20044;-61
2023/10/04 11:02:58;;;;;;;10.40;3.15;;;;;;;19.15;58.86;101979.53;5022207;28;20033;-68
2023/10/04 11:05:26;;;;;;;9.00;3.13;;;;;;;19.25;59.88;102007.25;5020023;28;20056;-69
2023/10/04 11:07:54;;;;;;;11.13;3.45;;;;;;;19.31;59.88;102007.13;5015907;28;20559;-67
2023/10/04 11:10:20;;;;;;;7.80;3.40;;;;;;;19.18;58.43;101989.94;5017469;28;20132;-66
2023/10/04 11:12:47;;;;;;;10.23;3.20;;;;;;;19.18;59.70;102010.91;5015027;28;20123;-68
2023/10/04 11:15:15;;;;;;;10.20;3.38;;;;;;;19.05;58.28;101978.94;5015850;28;20048;-67
2023/10/04 11:17:40;;;;;;;11.02;3.65;;;;;;;19.02;58.25;101985.09;5016463;28;20128;-63
2023/10/04 11:20:12;;;;;;;7.90;3.25;;;;;;;19.05;60.92;102047.94;5021179;28;20046;-62
2023/10/04 11:22:39;;;;;;;7.78;3.40;;;;;;;19.12;60.55;102032.91;5015091;28;20068;-61
2023/10/04 11:25:06;;;;;;;11.10;3.78;;;;;;;18.99;61.06;102037.59;5017741;28;20033;-63
2023/10/04 11:27:33;;;;;;;9.57;3.45;;;;;;;19.02;61.17;102048.00;5017166;28;20071;-62